Date,TemperatureHighF,TemperatureAvgF,TemperatureLowF,DewpointHighF,DewpointAvgF,DewpointLowF,HumidityHigh,HumidityAvg,HumidityLow,PressureMaxIn,PressureMinIn,WindSpeedMaxMPH,WindSpeedAvgMPH,GustSpeedMaxMPH,PrecipitationSumIn
2013-1-2,24,20,16,12,10,9,79,66,56,0.00,40.00,11,4,16,0.00
2013-1-3,31,21,11,19,13,7,87,69,47,0.00,40.00,17,6,25,0.00
2013-1-4,30,27,25,20,18,15,75,67,56,0.00,40.00,17,11,29,0.00
2013-1-5,37,29,22,23,19,15,82,68,53,0.00,40.00,10,5,19,2.24
2013-1-6,36,33,30,30,26,23,89,74,63,0.00,40.00,14,6,22,4.48
2013-1-7,33,29,23,25,23,20,87,78,64,0.00,40.00,9,4,14,0.00
2013-1-8,42,32,22,27,23,19,88,72,50,0.00,40.00,7,3,15,0.00
2013-1-9,46,40,33,37,29,23,84,66,54,0.00,40.00,14,7,25,2.24
2013-1-10,38,35,29,27,26,25,87,71,59,0.00,40.00,11,5,15,0.00
2013-1-11,55,47,38,51,40,25,93,77,53,0.00,40.00,10,6,17,1.10
2013-1-12,60,56,50,54,52,48,94,87,75,0.00,40.00,10,4,16,0.00
2013-1-13,65,61,49,55,53,42,90,76,64,0.00,40.00,21,6,29,1.65
2013-1-14,46,33,27,44,26,20,91,76,65,0.00,40.00,21,6,32,1.69
2013-1-15,31,27,23,21,20,19,86,73,61,0.00,40.00,7,4,16,0.00
2013-1-16,32,30,28,29,26,20,93,86,68,0.00,40.00,12,5,19,1.10
2013-1-17,34,32,28,27,25,18,83,76,64,0.00,40.00,17,5,25,0.00
2013-1-18,32,25,17,19,13,8,81,60,46,0.00,40.00,18,7,25,0.55
2013-1-19,51,42,32,23,19,16,57,41,25,0.00,40.00,17,10,32,0.00
2013-1-20,44,32,22,30,16,10,66,53,41,0.00,40.00,24,11,41,0.00
2013-1-21,22,18,9,17,11,-1,86,74,50,0.00,40.00,22,6,30,13.41
2013-1-22,11,7,3,2,-2,-5,78,67,52,0.00,40.00,16,6,26,1.10
2013-1-23,15,9,1,9,1,-4,87,69,48,0.00,40.00,7,2,16,0.55
2013-1-24,21,14,9,12,5,-3,89,69,34,0.00,40.00,9,3,17,1.10
2013-1-25,17,13,9,14,8,1,87,77,64,0.00,40.00,9,3,14,11.17
2013-1-26,26,21,16,20,16,12,90,79,58,0.00,40.00,13,5,22,4.44
2013-1-27,31,22,10,17,14,7,90,72,48,0.00,40.00,10,3,12,0.00
2013-1-28,48,40,29,47,37,17,94,90,61,0.00,40.00,12,7,22,6.05
2013-1-29,63,55,48,53,49,47,94,82,63,0.00,40.00,11,6,20,2.20
2013-1-30,64,56,37,55,49,33,90,78,64,0.00,40.00,26,8,38,16.29
2013-1-31,36,23,20,33,16,9,89,73,55,0.00,40.00,24,13,38,7.33
2013-2-1,19,13,11,16,5,0,85,68,53,0.00,40.00,16,10,28,1.65
2013-2-2,23,16,6,20,11,2,91,81,68,0.00,40.00,11,5,17,10.61
2013-2-3,22,20,16,20,14,9,91,80,62,0.00,40.00,17,6,27,4.44
2013-2-4,25,20,14,23,15,9,91,83,74,0.00,40.00,11,4,18,15.65
2013-2-5,29,26,24,26,23,20,93,88,71,0.00,40.00,9,3,16,1.10
2013-2-6,31,26,20,24,18,12,91,72,48,0.00,40.00,10,4,16,0.00
2013-2-7,43,31,20,28,21,11,79,66,47,0.00,40.00,11,6,16,0.00
2013-2-8,37,31,24,35,26,19,92,83,73,0.00,40.00,20,10,34,1.10
2013-2-9,33,26,21,20,16,13,82,66,44,0.00,40.00,16,4,28,0.00
2013-2-10,46,35,21,29,18,12,76,53,33,0.00,40.00,11,6,24,0.00
2013-2-11,55,44,35,44,33,22,92,68,35,0.00,40.00,30,12,44,0.00
2013-2-12,41,34,30,25,22,21,72,62,48,0.00,40.00,16,8,32,0.00
2013-2-13,35,30,25,27,24,21,87,77,65,0.00,40.00,7,3,12,0.00
2013-2-14,40,32,25,33,28,22,92,85,73,0.00,40.00,14,6,26,0.00
2013-2-15,37,32,25,30,24,18,91,74,54,0.00,40.00,14,6,27,2.79
2013-2-16,28,24,19,19,14,6,87,66,40,0.00,40.00,12,4,20,1.69
2013-2-17,21,16,13,16,9,4,86,72,51,0.00,40.00,16,8,26,1.65
2013-2-18,43,27,11,28,14,4,76,58,40,0.00,40.00,10,4,20,0.00
2013-2-19,46,33,19,37,26,12,88,75,48,0.00,40.00,22,12,42,8.80
2013-2-20,20,18,15,15,11,6,88,74,59,0.00,40.00,19,10,28,4.44
2013-2-21,23,20,17,15,13,9,88,73,61,0.00,40.00,12,5,19,3.30
2013-2-22,38,30,19,35,25,13,91,81,65,0.00,40.00,13,6,21,0.00
2013-2-23,41,35,29,34,29,22,93,79,57,0.00,40.00,12,3,17,0.00
2013-2-24,31,28,26,23,21,18,86,73,59,0.00,40.00,11,4,19,0.00
2013-2-25,42,33,25,24,21,19,82,61,41,0.00,40.00,7,3,16,0.00
2013-2-26,37,33,31,32,24,19,91,68,53,0.00,40.00,19,10,33,8.96
2013-2-27,40,36,32,35,32,26,91,85,77,0.00,40.00,15,8,29,2.79
2013-2-28,34,32,29,30,28,26,92,86,79,0.00,40.00,14,8,21,4.99
2013-3-1,29,28,25,27,22,18,89,78,64,0.00,40.00,13,8,19,0.00
2013-3-2,27,25,23,22,19,15,88,78,61,0.00,40.00,12,7,22,1.65
2013-3-3,26,23,21,22,17,13,90,78,62,0.00,40.00,13,7,19,3.85
2013-3-4,36,27,19,19,16,12,85,63,45,0.00,40.00,11,4,19,0.00
2013-3-5,43,32,20,21,15,8,77,51,24,0.00,40.00,19,7,28,0.00
2013-3-6,41,35,31,30,28,24,94,75,52,0.00,40.00,16,6,27,1.65
2013-3-7,40,33,30,29,27,25,90,80,56,0.00,40.00,12,6,21,0.00
2013-3-8,37,31,26,26,24,21,83,73,60,0.00,40.00,11,6,18,0.00
2013-3-9,54,39,24,28,25,20,89,61,30,0.00,40.00,10,4,15,0.00
2013-3-10,66,55,45,35,30,25,66,39,26,0.00,40.00,9,4,14,0.55
2013-3-11,58,54,44,48,35,29,91,51,33,0.00,40.00,18,6,31,5.03
2013-3-12,44,36,33,41,30,26,89,77,66,0.00,40.00,14,7,23,0.00
2013-3-13,34,29,25,29,24,18,89,79,63,0.00,40.00,19,8,29,3.85
2013-3-14,37,28,21,20,17,15,77,63,45,0.00,40.00,17,9,25,0.00
2013-3-15,48,37,27,35,25,19,83,62,50,0.00,40.00,16,6,23,0.00
2013-3-16,40,35,30,37,33,26,94,92,84,0.00,40.00,10,4,18,0.00
2013-3-17,33,30,28,26,23,21,87,77,66,0.00,40.00,7,2,14,0.00
2013-3-18,46,35,28,44,31,20,93,87,68,0.00,40.00,17,9,26,0.00
2013-3-19,46,34,29,44,24,15,92,68,50,0.00,40.00,25,12,42,0.55
2013-3-20,37,29,23,21,16,11,84,58,40,0.00,40.00,17,9,30,0.55
2013-3-21,28,22,15,21,12,6,87,68,49,0.00,40.00,12,8,22,2.75
2013-3-22,36,28,23,20,18,16,79,66,44,0.00,40.00,12,6,22,0.55
2013-3-23,44,34,25,24,19,17,73,57,34,0.00,40.00,11,4,17,0.00
2013-3-24,38,32,25,29,21,18,86,66,43,0.00,40.00,15,7,26,0.00
2013-3-25,35,32,30,32,30,29,94,92,87,0.00,40.00,15,6,22,20.72
2013-3-26,38,33,30,30,28,26,91,83,68,0.00,40.00,14,7,19,0.00
2013-3-27,41,35,31,29,26,21,90,70,47,0.00,40.00,17,9,27,1.10
2013-3-28,42,37,33,28,25,24,70,61,51,0.00,40.00,13,7,21,0.00
2013-3-29,51,41,32,28,24,18,74,51,27,0.00,40.00,13,5,19,0.00
2013-3-30,56,43,31,24,19,16,61,40,21,0.00,40.00,7,2,16,0.00
2013-3-31,48,45,42,44,32,-100,88,66,32,0.00,40.00,9,5,16,2.20
2013-4-1,46,38,31,40,23,10,84,55,30,0.00,40.00,17,10,27,0.00
2013-4-2,38,30,22,16,12,9,65,47,30,0.00,40.00,15,8,26,0.00
2013-4-3,39,31,23,17,12,7,71,47,28,0.00,40.00,19,6,29,0.00
2013-4-4,53,36,17,14,10,2,77,37,13,0.00,40.00,10,3,14,0.00
2013-4-5,52,42,33,28,20,14,61,40,26,0.00,40.00,15,6,22,0.00
2013-4-6,58,41,26,21,12,6,66,36,12,0.00,40.00,12,4,19,0.00
2013-4-7,72,60,49,42,33,10,59,37,18,0.00,40.00,22,10,35,0.00
2013-4-8,72,59,44,48,42,36,74,53,33,0.00,40.00,17,6,30,0.00
2013-4-9,80,68,56,52,49,43,74,51,34,0.00,40.00,14,6,24,0.00
2013-4-10,76,67,57,64,56,50,94,67,46,0.00,40.00,19,6,33,1.65
2013-4-11,69,60,56,58,55,51,94,84,66,0.00,40.00,12,4,19,0.00
2013-4-12,59,51,41,56,44,32,92,78,63,0.00,40.00,16,7,27,2.20
2013-4-13,47,42,37,34,31,28,77,66,51,0.00,40.00,18,8,29,0.00
2013-4-14,61,47,31,36,30,27,83,55,32,0.00,40.00,9,3,14,0.00
2013-4-15,65,59,52,48,42,33,64,53,43,0.00,40.00,13,6,21,0.00
2013-4-16,76,62,53,58,51,46,91,70,46,0.00,40.00,21,7,27,0.55
2013-4-17,66,56,48,52,48,44,93,77,54,0.00,40.00,9,4,15,0.00
2013-4-18,84,70,58,58,54,49,85,59,31,0.00,40.00,15,8,28,0.00
2013-4-19,72,56,39,58,44,28,91,63,45,0.00,40.00,22,10,35,2.75
2013-4-20,43,38,34,29,25,20,79,57,40,0.00,40.00,18,10,30,0.00
2013-4-21,51,40,28,24,20,16,81,48,26,0.00,40.00,11,4,16,0.00
2013-4-22,63,50,37,34,26,17,55,39,27,0.00,40.00,12,6,18,0.00
2013-4-23,71,56,40,37,32,22,66,41,25,0.00,40.00,11,6,19,0.00
2013-4-24,62,51,37,53,42,32,91,72,41,0.00,40.00,19,6,30,2.20
2013-4-25,54,42,32,39,32,26,91,70,35,0.00,40.00,17,6,29,1.10
2013-4-26,60,48,35,36,29,22,88,54,26,0.00,40.00,6,2,11,0.00
2013-4-27,73,57,40,35,29,24,66,36,20,0.00,40.00,10,3,16,0.00
2013-4-28,59,54,50,53,45,-100,91,74,36,0.00,40.00,11,5,18,3.34
2013-4-29,64,56,53,55,52,50,91,84,69,0.00,40.00,8,2,12,2.24
2013-4-30,74,62,48,54,50,46,93,69,42,0.00,40.00,12,5,17,0.00
2013-5-1,74,64,52,53,48,37,84,58,37,0.00,40.00,12,6,20,0.00
2013-5-2,75,64,53,46,36,29,50,35,22,0.00,40.00,14,7,21,0.00
2013-5-3,74,64,53,41,36,31,56,37,21,0.00,40.00,17,10,26,0.00
2013-5-4,70,60,48,41,35,28,56,40,23,0.00,40.00,16,9,22,0.00
2013-5-5,72,61,49,39,30,17,67,35,13,0.00,40.00,17,10,30,0.00
2013-5-6,70,60,49,50,42,27,68,52,30,0.00,40.00,14,9,22,0.00
2013-5-7,67,60,56,57,52,49,82,74,56,0.00,40.00,12,6,24,0.55
2013-5-8,73,62,56,54,49,40,85,63,31,0.00,40.00,10,4,16,0.00
2013-5-9,78,65,55,55,49,37,93,62,24,0.00,40.00,11,4,21,0.00
2013-5-10,72,62,58,60,54,-100,93,80,61,0.00,40.00,18,4,35,1.65
2013-5-11,60,54,49,58,49,45,92,84,72,0.00,40.00,11,6,16,0.00
2013-5-12,51,44,37,47,29,-100,89,58,39,0.00,40.00,18,9,34,0.00
2013-5-13,51,42,32,28,24,18,79,49,29,0.00,40.00,17,6,27,0.00
2013-5-14,64,50,34,39,30,21,66,48,32,0.00,40.00,8,4,16,0.00
2013-5-15,84,69,53,57,50,37,74,53,35,0.00,40.00,21,7,32,0.00
2013-5-16,78,64,60,60,32,-100,92,57,27,0.00,40.00,12,4,17,0.00
2013-5-17,80,67,59,60,50,-100,92,66,33,0.00,40.00,6,2,10,0.00
2013-5-18,80,68,55,60,50,41,72,53,35,0.00,40.00,11,3,16,0.00
2013-5-19,78,68,59,63,60,56,91,75,58,0.00,40.00,8,5,16,0.00
2013-5-20,84,73,63,66,63,60,90,73,48,0.00,40.00,9,4,14,0.00
2013-5-21,85,74,66,66,64,58,91,71,41,0.00,40.00,10,4,17,0.00
2013-5-22,83,73,63,64,59,53,85,64,41,0.00,40.00,14,5,24,0.55
2013-5-23,73,64,45,63,56,39,90,76,55,0.00,40.00,16,7,29,1.10
2013-5-24,45,42,34,40,34,29,89,72,55,0.00,40.00,14,9,24,0.00
2013-5-25,60,46,31,35,31,26,93,61,27,0.00,40.00,13,5,22,0.00
2013-5-26,66,52,37,36,31,27,82,47,26,0.00,40.00,11,4,16,0.00
2013-5-27,60,52,42,47,40,30,81,62,39,0.00,40.00,9,4,13,0.55
2013-5-28,81,66,53,65,57,46,91,73,48,0.00,40.00,14,5,24,0.00
2013-5-29,84,75,68,63,58,51,68,56,33,0.00,40.00,14,7,22,0.00
2013-5-30,86,76,67,64,60,59,75,59,41,0.00,40.00,10,3,16,0.00
2013-5-31,87,76,65,63,60,57,92,60,39,0.00,40.00,15,4,30,0.00
2013-6-1,83,73,64,65,63,61,91,71,54,0.00,40.00,15,5,26,0.00
2013-6-2,76,70,66,65,58,-100,91,69,46,0.00,40.00,16,7,27,0.00
2013-6-3,67,60,53,56,48,37,83,66,43,0.00,40.00,9,5,14,0.00
2013-6-4,73,59,42,47,42,36,84,54,33,0.00,40.00,8,2,14,0.00
2013-6-5,80,66,51,57,48,42,76,54,33,0.00,40.00,10,3,13,0.00
2013-6-6,71,66,59,64,62,56,92,87,71,0.00,40.00,7,3,12,2.75
2013-6-7,64,59,55,56,55,52,94,86,72,0.00,40.00,9,4,15,0.00
2013-6-8,71,62,55,56,52,50,90,73,50,0.00,40.00,7,2,11,0.00
2013-6-9,79,68,56,62,57,53,90,69,49,0.00,40.00,11,4,16,0.00
2013-6-10,72,67,60,66,62,57,91,84,68,0.00,40.00,11,4,27,0.55
2013-6-11,77,68,61,63,61,59,92,79,56,0.00,40.00,12,6,22,0.00
2013-6-12,81,73,65,70,64,60,85,73,57,0.00,40.00,8,3,12,2.83
2013-6-13,71,66,61,67,59,50,93,79,54,0.00,40.00,17,8,32,3.34
2013-6-14,72,62,54,56,54,51,92,75,51,0.00,40.00,10,4,15,0.00
2013-6-15,77,65,49,56,50,44,91,63,34,0.00,40.00,7,3,11,0.00
2013-6-16,74,67,62,65,61,53,92,80,61,0.00,40.00,13,6,24,1.10
2013-6-17,83,70,64,65,61,52,93,76,37,0.00,40.00,10,3,16,0.00
2013-6-18,78,68,60,64,59,51,92,74,52,0.00,40.00,11,4,18,0.00
2013-6-19,75,64,53,51,45,39,77,53,29,0.00,40.00,9,4,14,0.00
2013-6-20,81,65,52,54,48,44,84,59,29,0.00,40.00,6,2,9,0.00
2013-6-22,87,82,75,66,63,58,73,54,41,0.00,40.00,9,4,15,0.00
2013-6-23,86,78,68,68,64,60,86,63,42,0.00,40.00,10,3,16,0.00
2013-6-24,87,76,65,64,63,61,86,65,42,0.00,40.00,11,3,15,0.00
2013-6-25,86,75,65,70,65,61,92,72,55,0.00,40.00,11,6,21,2.20
2013-6-26,81,71,65,68,65,63,94,82,62,0.00,40.00,9,3,19,10.11
2013-6-27,78,71,66,68,65,63,93,82,66,0.00,40.00,7,3,15,1.65
2013-6-28,79,68,63,66,64,59,93,85,56,0.00,40.00,10,3,16,0.00
2013-6-29,76,67,60,65,60,57,91,81,58,0.00,40.00,14,3,21,0.00
2013-6-30,80,69,61,66,62,59,93,82,55,0.00,40.00,7,2,11,0.55
2013-7-1,75,67,64,67,63,62,92,84,62,0.00,40.00,6,3,11,1.10
2013-7-2,80,71,64,67,64,62,93,79,59,0.00,40.00,9,2,12,2.24
2013-7-3,84,73,67,68,66,64,93,79,52,0.00,40.00,7,2,14,3.93
2013-7-4,79,74,68,68,66,64,93,78,61,0.00,40.00,8,2,14,0.00
2013-7-5,79,71,68,69,66,65,92,84,61,0.00,40.00,10,3,16,0.00
2013-7-6,83,74,68,72,68,66,91,79,56,0.00,40.00,7,2,12,0.00
2013-7-7,78,72,67,67,64,62,91,77,59,0.00,40.00,10,4,17,0.00
2013-7-8,83,70,61,69,62,58,93,78,55,0.00,40.00,10,5,12,0.00
2013-7-9,85,72,67,73,68,65,94,85,66,0.00,40.00,10,4,16,1.10
2013-7-10,85,69,65,74,63,-100,94,86,64,0.00,40.00,12,4,19,5.03
2013-7-11,75,68,64,63,58,52,93,72,46,0.00,40.00,9,4,15,0.00
2013-7-12,75,66,59,62,58,54,90,75,53,0.00,40.00,7,3,15,0.00
2013-7-13,82,74,61,65,62,57,90,68,49,0.00,40.00,9,4,12,0.00
2013-7-14,87,77,67,69,66,63,89,69,49,0.00,40.00,9,3,14,0.00
2013-7-15,92,79,68,70,66,64,89,68,41,0.00,40.00,6,2,11,0.00
2013-7-16,87,77,72,75,71,67,93,82,59,0.00,40.00,9,2,19,0.00
2013-7-17,91,79,72,74,71,69,93,77,52,0.00,40.00,9,2,13,0.00
2013-7-18,90,81,72,74,71,69,91,73,54,0.00,40.00,7,2,11,0.00
2013-7-19,88,78,71,73,69,65,85,74,54,0.00,40.00,12,5,19,0.00
2013-7-20,80,73,69,69,65,-100,91,78,63,0.00,40.00,11,5,19,0.00
2013-7-21,83,72,67,69,66,64,93,83,52,0.00,40.00,9,1,17,0.00
2013-7-22,74,69,65,70,66,63,92,88,79,0.00,40.00,6,2,11,1.10
2013-7-23,80,70,64,68,64,62,93,83,64,0.00,40.00,12,4,21,0.00
2013-7-24,69,64,58,64,54,49,92,70,51,0.00,40.00,11,5,17,0.00
2013-7-25,74,62,52,56,50,45,88,68,36,0.00,40.00,7,3,12,0.00
2013-7-26,79,67,54,58,54,50,90,64,39,0.00,40.00,5,1,9,0.00
2013-7-27,74,67,62,65,60,56,91,80,65,0.00,40.00,7,2,20,2.20
2013-7-28,70,63,56,61,54,47,93,73,47,0.00,40.00,12,4,21,0.00
2013-7-29,69,60,53,56,52,50,89,75,53,0.00,40.00,12,3,16,0.00
2013-7-30,78,65,56,59,54,52,87,68,43,0.00,40.00,5,1,9,0.00
2013-7-31,74,66,57,64,59,54,91,78,60,0.00,40.00,4,2,8,0.00
2013-8-1,78,70,64,64,60,54,92,72,43,0.00,40.00,9,4,17,0.00
2013-8-2,73,67,58,61,57,51,90,71,46,0.00,40.00,9,4,14,0.00
2013-8-3,78,69,63,64,59,51,92,70,47,0.00,40.00,11,4,19,0.55
2013-8-4,71,64,56,58,52,48,89,67,45,0.00,40.00,12,4,19,0.00
2013-8-5,73,62,53,60,53,50,91,74,46,0.00,40.00,6,1,9,0.00
2013-8-6,79,68,57,59,55,51,90,65,39,0.00,40.00,6,2,10,0.00
2013-8-7,79,69,63,69,63,58,91,80,66,0.00,40.00,9,2,19,0.00
2013-8-8,83,73,67,73,68,65,93,85,66,0.00,40.00,8,2,11,0.00
2013-8-9,76,70,65,68,65,56,93,84,63,0.00,40.00,6,2,11,0.55
2013-8-10,80,72,61,65,60,51,85,66,52,0.00,40.00,6,2,12,0.00
2013-8-11,76,66,62,61,56,54,80,71,56,0.00,40.00,7,4,12,0.00
2013-12-8,29,21,15,28,17,10,94,82,66,0.00,40.00,9,6,17,0.00
2013-12-9,36,32,27,35,27,20,94,83,71,0.00,40.00,14,9,24,0.00
2013-12-10,27,23,19,20,13,0,91,68,32,0.00,40.00,16,8,25,3.34
2013-12-11,28,21,15,20,12,9,84,68,52,0.00,40.00,13,7,22,0.00
2013-12-12,20,15,7,14,2,-6,81,57,34,0.00,40.00,16,8,24,0.00
2013-12-13,33,24,17,18,10,2,68,54,45,0.00,40.00,11,5,18,0.00
2013-12-14,36,30,27,35,24,-100,94,82,63,0.00,40.00,7,4,12,4.99
2013-12-16,23,22,19,21,14,10,91,71,58,0.00,40.00,6,3,8,0.55
2013-12-17,30,27,23,28,23,20,93,83,64,0.00,40.00,14,6,21,0.55
2013-12-18,28,25,23,21,18,15,85,75,63,0.00,40.00,12,7,17,0.55
2013-12-19,47,41,28,31,25,16,61,52,45,0.00,40.00,15,-19,23,0.00
2013-12-20,54,49,44,49,37,24,91,65,43,0.00,40.00,14,8,26,0.00
2013-12-21,61,56,55,59,51,-100,93,87,79,0.00,40.00,13,7,25,3.93
2013-12-24,17,15,11,9,7,6,76,71,63,0.00,40.00,14,8,19,0.00
2013-12-25,26,19,9,22,12,5,86,74,53,0.00,40.00,7,3,14,0.00
2013-12-26,36,30,26,24,19,12,86,65,45,0.00,40.00,17,8,25,0.00
2013-12-27,41,34,27,26,22,16,67,60,52,0.00,40.00,9,6,15,0.00
2013-12-28,49,40,35,28,22,-100,62,51,43,0.00,40.00,12,8,21,0.00
2013-12-29,42,39,37,38,31,21,93,74,42,0.00,40.00,14,3,22,1.10
2013-12-30,36,24,21,31,16,8,90,73,55,0.00,40.00,16,7,25,0.00
2013-12-31,21,21,20,16,13,9,79,70,59,0.00,40.00,20,6,34,0.00
2014-1-1,33,28,25,23,22,20,83,76,66,0.00,40.00,7,4,12,0.00
2014-1-2,24,24,24,20,20,20,84,84,83,0.00,40.00,6,5,9,0.00